sensor_id;sensor_type;location;lat;lon;timestamp;P1;durP1;ratioP1;P2;durP2;ratioP2
22439;SDS011;11387;51.612;7.210;2023-03-11T00:00:47;7.22;;;3.70;;
22439;SDS011;11387;51.612;7.210;2023-03-11T00:03:17;7.45;;;3.70;;
22439;SDS011;11387;51.612;7.210;2023-03-11T00:05:50;6.05;;;3.72;;
22439;SDS011;11387;51.612;7.210;2023-03-11T00:08:22;7.20;;;3.80;;
22439;SDS011;11387;51.612;7.210;2023-03-11T00:10:53;5.78;;;3.60;;
22439;SDS011;11387;51.612;7.210;2023-03-11T00:13:28;7.07;;;3.47;;
22439;SDS011;11387;51.612;7.210;2023-03-11T00:15:58;9.43;;;4.88;;
22439;SDS011;11387;51.612;7.210;2023-03-11T00:18:29;6.82;;;4.40;;
22439;SDS011;11387;51.612;7.210;2023-03-11T00:20:59;6.88;;;4.15;;
22439;SDS011;11387;51.612;7.210;2023-03-11T00:23:28;7.57;;;3.95;;
22439;SDS011;11387;51.612;7.210;2023-03-11T00:25:57;9.68;;;4.43;;
22439;SDS011;11387;51.612;7.210;2023-03-11T00:28:29;9.25;;;4.75;;
22439;SDS011;11387;51.612;7.210;2023-03-11T00:31:00;10.85;;;4.70;;
22439;SDS011;11387;51.612;7.210;2023-03-11T00:33:31;7.43;;;4.20;;
22439;SDS011;11387;51.612;7.210;2023-03-11T00:36:01;8.55;;;4.20;;
22439;SDS011;11387;51.612;7.210;2023-03-11T00:38:29;8.10;;;4.45;;
22439;SDS011;11387;51.612;7.210;2023-03-11T00:40:58;11.40;;;4.57;;
22439;SDS011;11387;51.612;7.210;2023-03-11T00:43:28;9.10;;;4.47;;
22439;SDS011;11387;51.612;7.210;2023-03-11T00:45:57;11.77;;;4.25;;
22439;SDS011;11387;51.612;7.210;2023-03-11T00:48:25;9.57;;;5.28;;
22439;SDS011;11387;51.612;7.210;2023-03-11T00:50:54;10.25;;;4.68;;
22439;SDS011;11387;51.612;7.210;2023-03-11T00:53:24;10.48;;;5.03;;
22439;SDS011;11387;51.612;7.210;2023-03-11T00:55:53;6.88;;;4.40;;
22439;SDS011;11387;51.612;7.210;2023-03-11T00:58:21;9.85;;;3.72;;
22439;SDS011;11387;51.612;7.210;2023-03-11T01:00:54;14.55;;;5.28;;
22439;SDS011;11387;51.612;7.210;2023-03-11T01:03:22;11.02;;;4.97;;
22439;SDS011;11387;51.612;7.210;2023-03-11T01:05:51;9.30;;;4.25;;
22439;SDS011;11387;51.612;7.210;2023-03-11T01:08:20;9.98;;;3.38;;
22439;SDS011;11387;51.612;7.210;2023-03-11T01:10:50;8.88;;;4.05;;
22439;SDS011;11387;51.612;7.210;2023-03-11T01:13:18;12.15;;;4.45;;
22439;SDS011;11387;51.612;7.210;2023-03-11T01:15:47;11.63;;;4.15;;
22439;SDS011;11387;51.612;7.210;2023-03-11T01:18:16;13.38;;;3.85;;
22439;SDS011;11387;51.612;7.210;2023-03-11T01:20:46;11.77;;;4.50;;
22439;SDS011;11387;51.612;7.210;2023-03-11T01:23:16;8.48;;;3.88;;
22439;SDS011;11387;51.612;7.210;2023-03-11T01:26:01;11.20;;;3.42;;
22439;SDS011;11387;51.612;7.210;2023-03-11T01:28:30;8.73;;;4.25;;
22439;SDS011;11387;51.612;7.210;2023-03-11T01:30:59;13.15;;;3.80;;
22439;SDS011;11387;51.612;7.210;2023-03-11T01:33:28;6.03;;;3.47;;
22439;SDS011;11387;51.612;7.210;2023-03-11T01:35:56;7.03;;;3.53;;
22439;SDS011;11387;51.612;7.210;2023-03-11T01:38:25;9.40;;;3.60;;
22439;SDS011;11387;51.612;7.210;2023-03-11T01:40:54;9.82;;;3.05;;
22439;SDS011;11387;51.612;7.210;2023-03-11T01:46:22;6.18;;;3.50;;
22439;SDS011;11387;51.612;7.210;2023-03-11T01:48:52;5.30;;;2.75;;
22439;SDS011;11387;51.612;7.210;2023-03-11T01:51:24;13.23;;;3.92;;
22439;SDS011;11387;51.612;7.210;2023-03-11T01:53:58;17.20;;;3.97;;
22439;SDS011;11387;51.612;7.210;2023-03-11T01:56:30;13.68;;;4.00;;
22439;SDS011;11387;51.612;7.210;2023-03-11T01:59:02;9.70;;;4.10;;
22439;SDS011;11387;51.612;7.210;2023-03-11T02:01:30;7.20;;;3.88;;
22439;SDS011;11387;51.612;7.210;2023-03-11T02:04:01;6.75;;;3.30;;
22439;SDS011;11387;51.612;7.210;2023-03-11T02:06:31;15.65;;;3.88;;
22439;SDS011;11387;51.612;7.210;2023-03-11T02:09:00;12.82;;;3.28;;
22439;SDS011;11387;51.612;7.210;2023-03-11T02:11:29;10.15;;;3.47;;
22439;SDS011;11387;51.612;7.210;2023-03-11T02:13:59;7.53;;;2.55;;
22439;SDS011;11387;51.612;7.210;2023-03-11T02:16:34;5.15;;;2.50;;
22439;SDS011;11387;51.612;7.210;2023-03-11T02:19:03;13.20;;;3.60;;
22439;SDS011;11387;51.612;7.210;2023-03-11T02:21:47;8.07;;;3.22;;
22439;SDS011;11387;51.612;7.210;2023-03-11T02:24:18;8.80;;;2.78;;
22439;SDS011;11387;51.612;7.210;2023-03-11T02:26:55;14.35;;;3.08;;
22439;SDS011;11387;51.612;7.210;2023-03-11T02:29:24;11.13;;;2.60;;
22439;SDS011;11387;51.612;7.210;2023-03-11T02:31:55;5.78;;;2.28;;
22439;SDS011;11387;51.612;7.210;2023-03-11T02:34:27;7.85;;;2.58;;
22439;SDS011;11387;51.612;7.210;2023-03-11T02:36:57;15.73;;;2.75;;
22439;SDS011;11387;51.612;7.210;2023-03-11T02:39:28;7.50;;;2.60;;
22439;SDS011;11387;51.612;7.210;2023-03-11T02:41:59;10.95;;;2.80;;
22439;SDS011;11387;51.612;7.210;2023-03-11T02:44:31;15.45;;;2.70;;
22439;SDS011;11387;51.612;7.210;2023-03-11T02:47:01;8.50;;;3.10;;
22439;SDS011;11387;51.612;7.210;2023-03-11T02:49:30;14.40;;;3.08;;
22439;SDS011;11387;51.612;7.210;2023-03-11T02:51:59;9.88;;;2.85;;
22439;SDS011;11387;51.612;7.210;2023-03-11T02:54:27;21.88;;;3.25;;
22439;SDS011;11387;51.612;7.210;2023-03-11T02:56:56;15.13;;;3.47;;
22439;SDS011;11387;51.612;7.210;2023-03-11T02:59:26;13.93;;;3.85;;
22439;SDS011;11387;51.612;7.210;2023-03-11T03:01:55;17.50;;;3.83;;
22439;SDS011;11387;51.612;7.210;2023-03-11T03:04:23;14.02;;;3.35;;
22439;SDS011;11387;51.612;7.210;2023-03-11T03:06:52;14.60;;;3.70;;
22439;SDS011;11387;51.612;7.210;2023-03-11T03:09:21;13.55;;;3.97;;
22439;SDS011;11387;51.612;7.210;2023-03-11T03:11:49;19.35;;;4.20;;
22439;SDS011;11387;51.612;7.210;2023-03-11T03:14:18;20.55;;;4.75;;
22439;SDS011;11387;51.612;7.210;2023-03-11T03:16:48;18.15;;;3.72;;
22439;SDS011;11387;51.612;7.210;2023-03-11T03:19:17;9.93;;;4.35;;
22439;SDS011;11387;51.612;7.210;2023-03-11T03:22:12;13.05;;;2.92;;
22439;SDS011;11387;51.612;7.210;2023-03-11T03:24:40;14.90;;;4.30;;
22439;SDS011;11387;51.612;7.210;2023-03-11T03:27:09;16.65;;;4.38;;
22439;SDS011;11387;51.612;7.210;2023-03-11T03:29:37;13.20;;;4.18;;
22439;SDS011;11387;51.612;7.210;2023-03-11T03:32:05;18.73;;;4.72;;
22439;SDS011;11387;51.612;7.210;2023-03-11T03:34:34;12.90;;;3.92;;
22439;SDS011;11387;51.612;7.210;2023-03-11T03:37:03;19.35;;;3.88;;
22439;SDS011;11387;51.612;7.210;2023-03-11T03:39:33;17.05;;;3.90;;
22439;SDS011;11387;51.612;7.210;2023-03-11T03:42:01;15.10;;;3.60;;
22439;SDS011;11387;51.612;7.210;2023-03-11T03:44:30;22.33;;;4.20;;
22439;SDS011;11387;51.612;7.210;2023-03-11T03:46:59;19.08;;;4.10;;
22439;SDS011;11387;51.612;7.210;2023-03-11T03:49:28;16.70;;;3.88;;
22439;SDS011;11387;51.612;7.210;2023-03-11T03:51:56;8.95;;;3.28;;
22439;SDS011;11387;51.612;7.210;2023-03-11T03:54:24;14.05;;;3.17;;
22439;SDS011;11387;51.612;7.210;2023-03-11T03:56:54;14.65;;;4.03;;
22439;SDS011;11387;51.612;7.210;2023-03-11T03:59:23;15.27;;;3.70;;
22439;SDS011;11387;51.612;7.210;2023-03-11T04:01:51;16.73;;;2.95;;
22439;SDS011;11387;51.612;7.210;2023-03-11T04:04:20;12.00;;;2.55;;
22439;SDS011;11387;51.612;7.210;2023-03-11T04:06:49;13.98;;;3.20;;
22439;SDS011;11387;51.612;7.210;2023-03-11T04:09:18;16.30;;;3.28;;
22439;SDS011;11387;51.612;7.210;2023-03-11T04:11:47;8.48;;;2.85;;
22439;SDS011;11387;51.612;7.210;2023-03-11T04:14:16;8.25;;;2.58;;
22439;SDS011;11387;51.612;7.210;2023-03-11T04:16:45;11.82;;;2.70;;
22439;SDS011;11387;51.612;7.210;2023-03-11T04:19:13;14.13;;;3.30;;
22439;SDS011;11387;51.612;7.210;2023-03-11T04:21:56;11.30;;;2.45;;
22439;SDS011;11387;51.612;7.210;2023-03-11T04:24:38;10.23;;;2.80;;
22439;SDS011;11387;51.612;7.210;2023-03-11T04:27:06;19.27;;;3.83;;
22439;SDS011;11387;51.612;7.210;2023-03-11T04:29:36;12.43;;;2.70;;
22439;SDS011;11387;51.612;7.210;2023-03-11T04:32:05;11.13;;;2.75;;
22439;SDS011;11387;51.612;7.210;2023-03-11T04:34:34;17.20;;;3.90;;
22439;SDS011;11387;51.612;7.210;2023-03-11T04:37:02;16.25;;;2.70;;
22439;SDS011;11387;51.612;7.210;2023-03-11T04:39:31;11.10;;;2.78;;
22439;SDS011;11387;51.612;7.210;2023-03-11T04:41:59;18.60;;;3.67;;
22439;SDS011;11387;51.612;7.210;2023-03-11T04:44:30;11.77;;;3.90;;
22439;SDS011;11387;51.612;7.210;2023-03-11T04:46:59;18.27;;;3.25;;
22439;SDS011;11387;51.612;7.210;2023-03-11T04:49:28;12.50;;;2.47;;
22439;SDS011;11387;51.612;7.210;2023-03-11T04:51:57;9.32;;;2.63;;
22439;SDS011;11387;51.612;7.210;2023-03-11T04:54:25;11.43;;;3.58;;
22439;SDS011;11387;51.612;7.210;2023-03-11T04:56:53;9.60;;;3.38;;
22439;SDS011;11387;51.612;7.210;2023-03-11T04:59:22;11.65;;;3.15;;
22439;SDS011;11387;51.612;7.210;2023-03-11T05:01:50;10.25;;;3.45;;
22439;SDS011;11387;51.612;7.210;2023-03-11T05:04:21;14.13;;;3.60;;
22439;SDS011;11387;51.612;7.210;2023-03-11T05:06:49;14.32;;;3.45;;
22439;SDS011;11387;51.612;7.210;2023-03-11T05:09:18;9.88;;;3.28;;
22439;SDS011;11387;51.612;7.210;2023-03-11T05:11:46;20.83;;;3.15;;
22439;SDS011;11387;51.612;7.210;2023-03-11T05:14:15;19.75;;;3.83;;
22439;SDS011;11387;51.612;7.210;2023-03-11T05:16:43;9.68;;;2.65;;
22439;SDS011;11387;51.612;7.210;2023-03-11T05:19:12;15.40;;;3.55;;
22439;SDS011;11387;51.612;7.210;2023-03-11T05:22:02;9.00;;;2.78;;
22439;SDS011;11387;51.612;7.210;2023-03-11T05:24:31;14.80;;;4.07;;
22439;SDS011;11387;51.612;7.210;2023-03-11T05:27:00;7.18;;;2.80;;
22439;SDS011;11387;51.612;7.210;2023-03-11T05:29:29;14.60;;;4.85;;
22439;SDS011;11387;51.612;7.210;2023-03-11T05:31:58;17.92;;;2.90;;
22439;SDS011;11387;51.612;7.210;2023-03-11T05:34:27;14.10;;;2.85;;
22439;SDS011;11387;51.612;7.210;2023-03-11T05:36:56;11.88;;;2.50;;
22439;SDS011;11387;51.612;7.210;2023-03-11T05:39:25;19.92;;;2.97;;
22439;SDS011;11387;51.612;7.210;2023-03-11T05:41:54;9.95;;;2.78;;
22439;SDS011;11387;51.612;7.210;2023-03-11T05:44:23;18.35;;;2.65;;
22439;SDS011;11387;51.612;7.210;2023-03-11T05:46:51;24.13;;;3.13;;
22439;SDS011;11387;51.612;7.210;2023-03-11T05:49:20;15.85;;;2.88;;
22439;SDS011;11387;51.612;7.210;2023-03-11T05:51:48;13.10;;;2.70;;
22439;SDS011;11387;51.612;7.210;2023-03-11T05:54:17;9.90;;;2.28;;
22439;SDS011;11387;51.612;7.210;2023-03-11T05:56:47;8.80;;;2.22;;
22439;SDS011;11387;51.612;7.210;2023-03-11T05:59:16;13.73;;;2.70;;
22439;SDS011;11387;51.612;7.210;2023-03-11T06:01:45;13.95;;;2.50;;
22439;SDS011;11387;51.612;7.210;2023-03-11T06:04:14;10.80;;;3.05;;
22439;SDS011;11387;51.612;7.210;2023-03-11T06:06:42;15.27;;;2.47;;
22439;SDS011;11387;51.612;7.210;2023-03-11T06:09:11;8.55;;;2.10;;
22439;SDS011;11387;51.612;7.210;2023-03-11T06:11:40;12.35;;;2.63;;
22439;SDS011;11387;51.612;7.210;2023-03-11T06:14:11;9.88;;;2.15;;
22439;SDS011;11387;51.612;7.210;2023-03-11T06:16:41;9.25;;;2.60;;
22439;SDS011;11387;51.612;7.210;2023-03-11T06:19:10;8.35;;;2.55;;
22439;SDS011;11387;51.612;7.210;2023-03-11T06:21:38;10.77;;;2.03;;
22439;SDS011;11387;51.612;7.210;2023-03-11T06:24:07;10.20;;;2.40;;
22439;SDS011;11387;51.612;7.210;2023-03-11T06:26:36;8.10;;;2.97;;
22439;SDS011;11387;51.612;7.210;2023-03-11T06:29:06;16.05;;;2.67;;
22439;SDS011;11387;51.612;7.210;2023-03-11T06:31:38;11.05;;;2.35;;
22439;SDS011;11387;51.612;7.210;2023-03-11T06:34:07;13.68;;;1.80;;
22439;SDS011;11387;51.612;7.210;2023-03-11T06:36:36;10.32;;;3.45;;
22439;SDS011;11387;51.612;7.210;2023-03-11T06:39:05;12.55;;;2.75;;
22439;SDS011;11387;51.612;7.210;2023-03-11T06:41:35;12.57;;;2.78;;
22439;SDS011;11387;51.612;7.210;2023-03-11T06:44:03;11.75;;;2.05;;
22439;SDS011;11387;51.612;7.210;2023-03-11T06:46:32;8.52;;;1.95;;
22439;SDS011;11387;51.612;7.210;2023-03-11T06:49:02;14.90;;;2.45;;
22439;SDS011;11387;51.612;7.210;2023-03-11T06:51:31;8.63;;;1.98;;
22439;SDS011;11387;51.612;7.210;2023-03-11T06:54:00;9.48;;;1.90;;
22439;SDS011;11387;51.612;7.210;2023-03-11T06:56:28;10.75;;;4.15;;
22439;SDS011;11387;51.612;7.210;2023-03-11T06:58:57;7.45;;;2.55;;
22439;SDS011;11387;51.612;7.210;2023-03-11T07:01:25;18.15;;;3.33;;
22439;SDS011;11387;51.612;7.210;2023-03-11T07:03:55;13.10;;;2.80;;
22439;SDS011;11387;51.612;7.210;2023-03-11T07:06:25;6.47;;;1.98;;
22439;SDS011;11387;51.612;7.210;2023-03-11T07:08:55;12.18;;;3.33;;
22439;SDS011;11387;51.612;7.210;2023-03-11T07:11:24;14.95;;;2.05;;
22439;SDS011;11387;51.612;7.210;2023-03-11T07:13:54;6.80;;;2.25;;
22439;SDS011;11387;51.612;7.210;2023-03-11T07:16:23;8.85;;;2.60;;
22439;SDS011;11387;51.612;7.210;2023-03-11T07:18:54;6.75;;;2.20;;
22439;SDS011;11387;51.612;7.210;2023-03-11T07:21:26;13.98;;;2.67;;
22439;SDS011;11387;51.612;7.210;2023-03-11T07:23:56;11.95;;;1.90;;
22439;SDS011;11387;51.612;7.210;2023-03-11T07:26:26;5.93;;;1.70;;
22439;SDS011;11387;51.612;7.210;2023-03-11T07:28:56;9.13;;;2.10;;
22439;SDS011;11387;51.612;7.210;2023-03-11T07:31:26;8.02;;;2.10;;
22439;SDS011;11387;51.612;7.210;2023-03-11T07:33:57;8.05;;;2.28;;
22439;SDS011;11387;51.612;7.210;2023-03-11T07:36:29;7.53;;;1.73;;
22439;SDS011;11387;51.612;7.210;2023-03-11T07:38:58;8.15;;;2.05;;
22439;SDS011;11387;51.612;7.210;2023-03-11T07:41:31;13.90;;;2.05;;
22439;SDS011;11387;51.612;7.210;2023-03-11T07:44:02;6.00;;;2.08;;
22439;SDS011;11387;51.612;7.210;2023-03-11T07:46:31;5.07;;;1.80;;
22439;SDS011;11387;51.612;7.210;2023-03-11T07:49:00;12.23;;;1.58;;
22439;SDS011;11387;51.612;7.210;2023-03-11T07:51:31;10.05;;;1.50;;
22439;SDS011;11387;51.612;7.210;2023-03-11T07:54:01;6.22;;;1.85;;
22439;SDS011;11387;51.612;7.210;2023-03-11T07:56:31;5.38;;;1.60;;
22439;SDS011;11387;51.612;7.210;2023-03-11T07:59:02;6.07;;;1.98;;
22439;SDS011;11387;51.612;7.210;2023-03-11T08:01:32;8.55;;;1.67;;
22439;SDS011;11387;51.612;7.210;2023-03-11T08:04:03;6.95;;;2.28;;
22439;SDS011;11387;51.612;7.210;2023-03-11T08:06:35;6.72;;;1.88;;
22439;SDS011;11387;51.612;7.210;2023-03-11T08:09:05;10.75;;;2.08;;
22439;SDS011;11387;51.612;7.210;2023-03-11T08:11:35;6.50;;;2.00;;
22439;SDS011;11387;51.612;7.210;2023-03-11T08:14:05;8.13;;;2.20;;
22439;SDS011;11387;51.612;7.210;2023-03-11T08:16:33;5.60;;;1.75;;
22439;SDS011;11387;51.612;7.210;2023-03-11T08:19:02;7.25;;;2.53;;
22439;SDS011;11387;51.612;7.210;2023-03-11T08:21:30;5.78;;;1.90;;
22439;SDS011;11387;51.612;7.210;2023-03-11T08:24:00;7.57;;;1.90;;
22439;SDS011;11387;51.612;7.210;2023-03-11T08:26:35;10.63;;;1.48;;
22439;SDS011;11387;51.612;7.210;2023-03-11T08:29:04;5.00;;;1.67;;
22439;SDS011;11387;51.612;7.210;2023-03-11T08:31:33;7.50;;;1.58;;
22439;SDS011;11387;51.612;7.210;2023-03-11T08:34:02;5.28;;;1.80;;
22439;SDS011;11387;51.612;7.210;2023-03-11T08:36:32;7.35;;;2.17;;
22439;SDS011;11387;51.612;7.210;2023-03-11T08:39:02;6.60;;;2.78;;
22439;SDS011;11387;51.612;7.210;2023-03-11T08:41:31;5.05;;;1.73;;
22439;SDS011;11387;51.612;7.210;2023-03-11T08:44:00;3.90;;;1.50;;
22439;SDS011;11387;51.612;7.210;2023-03-11T08:46:30;8.63;;;2.50;;
22439;SDS011;11387;51.612;7.210;2023-03-11T08:49:00;8.02;;;3.28;;
22439;SDS011;11387;51.612;7.210;2023-03-11T08:51:29;4.95;;;1.55;;
22439;SDS011;11387;51.612;7.210;2023-03-11T08:53:59;6.03;;;1.92;;
22439;SDS011;11387;51.612;7.210;2023-03-11T08:56:29;10.55;;;4.95;;
22439;SDS011;11387;51.612;7.210;2023-03-11T08:58:58;9.38;;;3.15;;
22439;SDS011;11387;51.612;7.210;2023-03-11T09:01:26;6.43;;;1.80;;
22439;SDS011;11387;51.612;7.210;2023-03-11T09:03:55;8.93;;;1.90;;
22439;SDS011;11387;51.612;7.210;2023-03-11T09:06:24;7.53;;;2.28;;
22439;SDS011;11387;51.612;7.210;2023-03-11T09:08:52;5.15;;;1.70;;
22439;SDS011;11387;51.612;7.210;2023-03-11T09:11:21;8.93;;;2.13;;
22439;SDS011;11387;51.612;7.210;2023-03-11T09:13:51;7.75;;;2.42;;
22439;SDS011;11387;51.612;7.210;2023-03-11T09:16:20;5.63;;;1.77;;
22439;SDS011;11387;51.612;7.210;2023-03-11T09:18:50;3.72;;;1.70;;
22439;SDS011;11387;51.612;7.210;2023-03-11T09:21:18;8.20;;;2.72;;
22439;SDS011;11387;51.612;7.210;2023-03-11T09:23:47;5.50;;;2.20;;
22439;SDS011;11387;51.612;7.210;2023-03-11T09:26:15;7.35;;;2.20;;
22439;SDS011;11387;51.612;7.210;2023-03-11T09:28:44;6.85;;;1.83;;
22439;SDS011;11387;51.612;7.210;2023-03-11T09:31:16;5.50;;;2.00;;
22439;SDS011;11387;51.612;7.210;2023-03-11T09:33:46;7.88;;;1.83;;
22439;SDS011;11387;51.612;7.210;2023-03-11T09:36:17;7.38;;;1.50;;
22439;SDS011;11387;51.612;7.210;2023-03-11T09:38:47;4.43;;;1.55;;
22439;SDS011;11387;51.612;7.210;2023-03-11T09:41:25;5.68;;;1.73;;
22439;SDS011;11387;51.612;7.210;2023-03-11T09:44:15;7.32;;;1.95;;
22439;SDS011;11387;51.612;7.210;2023-03-11T09:46:54;9.48;;;2.17;;
22439;SDS011;11387;51.612;7.210;2023-03-11T09:49:33;7.75;;;3.78;;
22439;SDS011;11387;51.612;7.210;2023-03-11T09:52:13;5.60;;;1.63;;
22439;SDS011;11387;51.612;7.210;2023-03-11T09:54:44;8.43;;;2.30;;
22439;SDS011;11387;51.612;7.210;2023-03-11T09:57:16;8.38;;;1.48;;
22439;SDS011;11387;51.612;7.210;2023-03-11T09:59:46;5.75;;;1.55;;
22439;SDS011;11387;51.612;7.210;2023-03-11T10:02:17;8.80;;;2.88;;
22439;SDS011;11387;51.612;7.210;2023-03-11T10:04:49;6.50;;;1.55;;
22439;SDS011;11387;51.612;7.210;2023-03-11T10:07:22;4.05;;;1.42;;
22439;SDS011;11387;51.612;7.210;2023-03-11T10:10:00;5.10;;;1.35;;
22439;SDS011;11387;51.612;7.210;2023-03-11T10:12:34;3.28;;;1.00;;
22439;SDS011;11387;51.612;7.210;2023-03-11T10:15:15;7.57;;;2.95;;
22439;SDS011;11387;51.612;7.210;2023-03-11T10:17:58;8.90;;;2.42;;
22439;SDS011;11387;51.612;7.210;2023-03-11T10:20:34;10.23;;;2.47;;
22439;SDS011;11387;51.612;7.210;2023-03-11T10:23:13;4.63;;;1.98;;
22439;SDS011;11387;51.612;7.210;2023-03-11T10:25:54;4.22;;;1.90;;
22439;SDS011;11387;51.612;7.210;2023-03-11T10:28:29;9.68;;;4.03;;
22439;SDS011;11387;51.612;7.210;2023-03-11T10:31:05;13.27;;;3.88;;
22439;SDS011;11387;51.612;7.210;2023-03-11T10:33:48;9.52;;;2.80;;
22439;SDS011;11387;51.612;7.210;2023-03-11T10:36:20;5.75;;;3.30;;
22439;SDS011;11387;51.612;7.210;2023-03-11T10:38:54;8.43;;;2.80;;
22439;SDS011;11387;51.612;7.210;2023-03-11T10:41:31;5.15;;;1.20;;
22439;SDS011;11387;51.612;7.210;2023-03-11T10:44:11;10.48;;;3.88;;
22439;SDS011;11387;51.612;7.210;2023-03-11T10:46:42;4.82;;;1.98;;
22439;SDS011;11387;51.612;7.210;2023-03-11T10:49:13;7.03;;;1.33;;
22439;SDS011;11387;51.612;7.210;2023-03-11T10:51:44;5.65;;;1.60;;
22439;SDS011;11387;51.612;7.210;2023-03-11T10:54:20;5.10;;;1.40;;
22439;SDS011;11387;51.612;7.210;2023-03-11T10:56:53;5.85;;;1.30;;
22439;SDS011;11387;51.612;7.210;2023-03-11T10:59:24;6.35;;;1.25;;
22439;SDS011;11387;51.612;7.210;2023-03-11T11:01:56;8.35;;;1.48;;
22439;SDS011;11387;51.612;7.210;2023-03-11T11:04:28;2.97;;;0.82;;
22439;SDS011;11387;51.612;7.210;2023-03-11T11:07:18;5.40;;;1.08;;
22439;SDS011;11387;51.612;7.210;2023-03-11T11:09:53;6.85;;;1.33;;
22439;SDS011;11387;51.612;7.210;2023-03-11T11:12:50;9.13;;;1.73;;
22439;SDS011;11387;51.612;7.210;2023-03-11T11:15:20;5.60;;;1.17;;
22439;SDS011;11387;51.612;7.210;2023-03-11T11:17:50;5.43;;;1.92;;
22439;SDS011;11387;51.612;7.210;2023-03-11T11:20:23;4.53;;;1.70;;
22439;SDS011;11387;51.612;7.210;2023-03-11T11:22:54;7.70;;;1.85;;
22439;SDS011;11387;51.612;7.210;2023-03-11T11:25:29;6.20;;;1.02;;
22439;SDS011;11387;51.612;7.210;2023-03-11T11:28:00;6.32;;;1.40;;
22439;SDS011;11387;51.612;7.210;2023-03-11T11:30:31;5.80;;;1.48;;
22439;SDS011;11387;51.612;7.210;2023-03-11T11:33:19;4.10;;;1.20;;
22439;SDS011;11387;51.612;7.210;2023-03-11T11:35:52;3.50;;;1.05;;
22439;SDS011;11387;51.612;7.210;2023-03-11T11:38:23;5.93;;;1.50;;
22439;SDS011;11387;51.612;7.210;2023-03-11T11:40:54;6.45;;;1.42;;
22439;SDS011;11387;51.612;7.210;2023-03-11T11:43:31;6.18;;;1.65;;
22439;SDS011;11387;51.612;7.210;2023-03-11T11:46:13;3.83;;;1.20;;
22439;SDS011;11387;51.612;7.210;2023-03-11T11:48:49;9.10;;;1.35;;
22439;SDS011;11387;51.612;7.210;2023-03-11T11:51:27;7.38;;;1.40;;
22439;SDS011;11387;51.612;7.210;2023-03-11T11:54:00;3.75;;;1.00;;
22439;SDS011;11387;51.612;7.210;2023-03-11T11:56:34;6.00;;;1.45;;
22439;SDS011;11387;51.612;7.210;2023-03-11T11:59:04;4.57;;;1.33;;
22439;SDS011;11387;51.612;7.210;2023-03-11T12:01:38;6.38;;;1.10;;
22439;SDS011;11387;51.612;7.210;2023-03-11T12:04:21;4.45;;;1.27;;
22439;SDS011;11387;51.612;7.210;2023-03-11T12:07:09;6.22;;;1.30;;
22439;SDS011;11387;51.612;7.210;2023-03-11T12:09:51;4.70;;;1.40;;
22439;SDS011;11387;51.612;7.210;2023-03-11T12:12:40;7.13;;;1.33;;
22439;SDS011;11387;51.612;7.210;2023-03-11T12:15:17;5.53;;;1.50;;
22439;SDS011;11387;51.612;7.210;2023-03-11T12:17:51;1.85;;;0.85;;
22439;SDS011;11387;51.612;7.210;2023-03-11T12:20:26;5.78;;;1.80;;
22439;SDS011;11387;51.612;7.210;2023-03-11T12:23:05;6.10;;;1.30;;
22439;SDS011;11387;51.612;7.210;2023-03-11T12:25:52;2.53;;;1.15;;
22439;SDS011;11387;51.612;7.210;2023-03-11T12:28:37;2.60;;;0.93;;
22439;SDS011;11387;51.612;7.210;2023-03-11T12:31:09;10.85;;;1.25;;
22439;SDS011;11387;51.612;7.210;2023-03-11T12:33:40;8.27;;;1.13;;
22439;SDS011;11387;51.612;7.210;2023-03-11T12:36:20;6.05;;;1.00;;
22439;SDS011;11387;51.612;7.210;2023-03-11T12:38:52;4.85;;;1.30;;
22439;SDS011;11387;51.612;7.210;2023-03-11T12:41:28;2.83;;;0.93;;
22439;SDS011;11387;51.612;7.210;2023-03-11T12:44:00;4.47;;;1.45;;
22439;SDS011;11387;51.612;7.210;2023-03-11T12:49:45;6.68;;;1.00;;
22439;SDS011;11387;51.612;7.210;2023-03-11T12:52:16;5.95;;;0.98;;
22439;SDS011;11387;51.612;7.210;2023-03-11T12:58:27;6.55;;;1.05;;
22439;SDS011;11387;51.612;7.210;2023-03-11T13:01:31;6.10;;;1.05;;
22439;SDS011;11387;51.612;7.210;2023-03-11T13:04:24;7.85;;;1.13;;
22439;SDS011;11387;51.612;7.210;2023-03-11T13:10:14;5.22;;;1.23;;
22439;SDS011;11387;51.612;7.210;2023-03-11T13:12:46;3.45;;;0.70;;
22439;SDS011;11387;51.612;7.210;2023-03-11T13:15:36;4.57;;;1.35;;
22439;SDS011;11387;51.612;7.210;2023-03-11T13:18:14;3.22;;;1.20;;
22439;SDS011;11387;51.612;7.210;2023-03-11T13:20:54;3.83;;;1.30;;
22439;SDS011;11387;51.612;7.210;2023-03-11T13:23:28;5.35;;;1.80;;
22439;SDS011;11387;51.612;7.210;2023-03-11T13:26:08;4.65;;;1.10;;
22439;SDS011;11387;51.612;7.210;2023-03-11T13:28:49;6.88;;;1.33;;
22439;SDS011;11387;51.612;7.210;2023-03-11T13:31:33;6.10;;;1.02;;
22439;SDS011;11387;51.612;7.210;2023-03-11T13:34:13;3.10;;;1.48;;
22439;SDS011;11387;51.612;7.210;2023-03-11T13:36:45;5.38;;;0.90;;
22439;SDS011;11387;51.612;7.210;2023-03-11T13:39:35;4.07;;;0.82;;
22439;SDS011;11387;51.612;7.210;2023-03-11T13:42:19;2.63;;;0.88;;
22439;SDS011;11387;51.612;7.210;2023-03-11T13:44:54;3.83;;;1.50;;
22439;SDS011;11387;51.612;7.210;2023-03-11T13:47:25;6.95;;;1.05;;
22439;SDS011;11387;51.612;7.210;2023-03-11T13:49:58;4.70;;;1.35;;
22439;SDS011;11387;51.612;7.210;2023-03-11T13:52:30;5.03;;;1.00;;
22439;SDS011;11387;51.612;7.210;2023-03-11T13:55:04;4.65;;;1.40;;
22439;SDS011;11387;51.612;7.210;2023-03-11T13:57:36;6.20;;;1.70;;
22439;SDS011;11387;51.612;7.210;2023-03-11T14:00:06;4.25;;;1.40;;
22439;SDS011;11387;51.612;7.210;2023-03-11T14:02:46;5.30;;;1.50;;
22439;SDS011;11387;51.612;7.210;2023-03-11T14:05:18;4.38;;;1.27;;
22439;SDS011;11387;51.612;7.210;2023-03-11T14:07:49;4.68;;;1.02;;
22439;SDS011;11387;51.612;7.210;2023-03-11T14:10:20;5.65;;;1.45;;
22439;SDS011;11387;51.612;7.210;2023-03-11T14:13:02;2.95;;;1.30;;
22439;SDS011;11387;51.612;7.210;2023-03-11T14:15:36;7.95;;;1.70;;
22439;SDS011;11387;51.612;7.210;2023-03-11T14:18:26;9.75;;;1.67;;
22439;SDS011;11387;51.612;7.210;2023-03-11T14:21:00;6.38;;;1.20;;
22439;SDS011;11387;51.612;7.210;2023-03-11T14:23:32;5.20;;;1.05;;
22439;SDS011;11387;51.612;7.210;2023-03-11T14:26:05;3.92;;;0.82;;
22439;SDS011;11387;51.612;7.210;2023-03-11T14:28:36;3.45;;;0.80;;
22439;SDS011;11387;51.612;7.210;2023-03-11T14:31:20;2.92;;;0.80;;
22439;SDS011;11387;51.612;7.210;2023-03-11T14:33:55;3.83;;;1.25;;
22439;SDS011;11387;51.612;7.210;2023-03-11T14:36:38;11.23;;;1.30;;
22439;SDS011;11387;51.612;7.210;2023-03-11T14:39:21;3.83;;;1.00;;
22439;SDS011;11387;51.612;7.210;2023-03-11T14:41:52;4.50;;;1.05;;
22439;SDS011;11387;51.612;7.210;2023-03-11T14:44:25;3.85;;;0.93;;
22439;SDS011;11387;51.612;7.210;2023-03-11T14:46:56;5.45;;;1.20;;
22439;SDS011;11387;51.612;7.210;2023-03-11T14:49:32;3.72;;;0.88;;
22439;SDS011;11387;51.612;7.210;2023-03-11T14:52:02;4.30;;;1.10;;
22439;SDS011;11387;51.612;7.210;2023-03-11T14:54:35;5.55;;;1.27;;
22439;SDS011;11387;51.612;7.210;2023-03-11T14:57:06;6.40;;;1.30;;
22439;SDS011;11387;51.612;7.210;2023-03-11T14:59:42;5.68;;;1.48;;
22439;SDS011;11387;51.612;7.210;2023-03-11T15:02:31;5.93;;;1.33;;
22439;SDS011;11387;51.612;7.210;2023-03-11T15:05:08;4.28;;;1.23;;
22439;SDS011;11387;51.612;7.210;2023-03-11T15:07:46;3.70;;;1.27;;
22439;SDS011;11387;51.612;7.210;2023-03-11T15:10:16;2.03;;;0.77;;
22439;SDS011;11387;51.612;7.210;2023-03-11T15:12:45;7.53;;;1.02;;
22439;SDS011;11387;51.612;7.210;2023-03-11T15:15:22;6.22;;;1.23;;
22439;SDS011;11387;51.612;7.210;2023-03-11T15:17:54;4.28;;;1.35;;
22439;SDS011;11387;51.612;7.210;2023-03-11T15:20:29;3.17;;;1.17;;
22439;SDS011;11387;51.612;7.210;2023-03-11T15:23:00;3.80;;;0.95;;
22439;SDS011;11387;51.612;7.210;2023-03-11T15:25:31;9.63;;;1.50;;